createdAt,value
2017-05-19T00:01:19.948Z,83.70
2017-05-19T00:03:48.565Z,84.10
2017-05-19T00:06:17.181Z,84.50
2017-05-19T00:08:45.969Z,84.20
2017-05-19T00:11:14.191Z,84.20
2017-05-19T00:13:43.185Z,84.80
2017-05-19T00:16:12.234Z,85.20
2017-05-19T00:18:40.910Z,84.60
2017-05-19T00:21:09.511Z,85.00
2017-05-19T00:23:37.763Z,85.00
2017-05-19T00:26:05.983Z,85.60
2017-05-19T00:28:34.973Z,85.50
2017-05-19T00:31:04.456Z,85.30
2017-05-19T00:33:33.077Z,84.80
2017-05-19T00:36:01.305Z,84.80
2017-05-19T00:38:30.145Z,84.70
2017-05-19T00:40:58.768Z,84.70
2017-05-19T00:43:27.390Z,84.90
2017-05-19T00:45:56.403Z,85.00
2017-05-19T00:48:25.020Z,85.60
2017-05-19T00:50:53.644Z,85.90
2017-05-19T00:53:22.436Z,86.00
2017-05-19T00:55:50.659Z,86.00
2017-05-19T00:58:19.281Z,86.30
2017-05-19T01:00:47.928Z,86.30
2017-05-19T01:03:16.546Z,86.60
2017-05-19T01:05:45.463Z,86.60
2017-05-19T01:08:14.012Z,86.60
2017-05-19T01:10:42.626Z,86.80
2017-05-19T01:13:10.852Z,86.80
2017-05-19T01:15:39.092Z,86.30
2017-05-19T01:18:07.324Z,86.30
2017-05-19T01:20:36.307Z,86.00
2017-05-19T01:23:05.040Z,86.50
2017-05-19T01:25:33.665Z,87.20
2017-05-19T01:28:02.271Z,87.20
2017-05-19T01:30:30.532Z,87.10
2017-05-19T01:32:59.756Z,87.50
2017-05-19T01:35:28.372Z,86.90
2017-05-19T01:37:57.018Z,87.30
2017-05-19T01:40:25.645Z,87.70
2017-05-19T01:42:54.257Z,87.70
2017-05-19T01:45:23.280Z,87.80
2017-05-19T01:47:51.911Z,88.10
2017-05-19T01:50:20.533Z,87.70
2017-05-19T01:52:48.767Z,87.80
2017-05-19T01:55:17.390Z,88.60
2017-05-19T01:57:45.612Z,88.60
2017-05-19T02:00:14.256Z,89.40
2017-05-19T02:02:42.876Z,89.40
2017-05-19T02:05:11.503Z,88.70
2017-05-19T02:07:40.771Z,89.10
2017-05-19T02:10:09.400Z,88.40
2017-05-19T02:12:38.020Z,88.10
2017-05-19T02:15:06.656Z,88.50
2017-05-19T02:17:35.280Z,88.70
2017-05-19T02:20:03.895Z,88.70
2017-05-19T02:22:32.548Z,89.00
2017-05-19T02:25:01.174Z,89.00
2017-05-19T02:27:30.157Z,88.40
2017-05-19T02:29:58.680Z,88.40
2017-05-19T02:32:27.303Z,87.40
2017-05-19T02:34:55.926Z,87.90
2017-05-19T02:37:24.779Z,88.10
2017-05-19T02:39:53.004Z,88.10
2017-05-19T02:42:21.623Z,88.70
2017-05-19T02:44:50.271Z,88.20
2017-05-19T02:47:18.896Z,87.60
2017-05-19T02:49:47.517Z,87.70
2017-05-19T02:52:16.343Z,87.90
2017-05-19T02:54:44.965Z,87.50
2017-05-19T02:57:13.954Z,88.10
2017-05-19T02:59:43.235Z,87.90
2017-05-19T03:02:11.862Z,87.70
2017-05-19T03:04:40.480Z,87.70
2017-05-19T03:07:09.124Z,88.30
2017-05-19T03:09:37.749Z,88.20
2017-05-19T03:12:06.364Z,88.80
2017-05-19T03:14:35.652Z,87.80
2017-05-19T03:17:03.884Z,87.80
2017-05-19T03:19:32.512Z,88.10
2017-05-19T03:22:01.671Z,88.40
2017-05-19T03:24:30.288Z,88.50
2017-05-19T03:26:58.908Z,88.50
2017-05-19T03:29:27.551Z,88.10
2017-05-19T03:31:56.169Z,88.00
2017-05-19T03:34:24.797Z,88.50
2017-05-19T03:36:53.433Z,88.70
2017-05-19T03:39:22.049Z,88.80
2017-05-19T03:41:50.664Z,88.80
2017-05-19T03:44:19.392Z,89.00
2017-05-19T03:46:48.016Z,88.80
2017-05-19T03:49:16.627Z,89.20
2017-05-19T03:51:45.635Z,88.50
2017-05-19T03:54:14.256Z,88.60
2017-05-19T03:56:43.400Z,88.50
2017-05-19T03:59:12.407Z,88.90
2017-05-19T04:01:41.022Z,89.30
2017-05-19T04:04:09.648Z,89.40
2017-05-19T04:06:37.923Z,89.40
2017-05-19T04:09:06.145Z,89.40
2017-05-19T04:11:34.369Z,89.40
2017-05-19T04:14:03.556Z,88.50
2017-05-19T04:16:32.178Z,89.30
2017-05-19T04:19:00.803Z,88.70
2017-05-19T04:21:29.451Z,88.80
2017-05-19T04:23:58.073Z,88.60
2017-05-19T04:26:26.693Z,88.40
2017-05-19T04:28:55.344Z,88.60
2017-05-19T04:31:23.969Z,88.50
2017-05-19T04:33:52.602Z,88.40
2017-05-19T04:36:21.340Z,87.70
2017-05-19T04:38:49.975Z,87.50
2017-05-19T04:41:18.591Z,88.00
2017-05-19T04:43:47.245Z,87.70
2017-05-19T04:46:15.472Z,87.70
2017-05-19T04:48:43.718Z,87.40
2017-05-19T04:51:12.330Z,87.00
2017-05-19T04:53:41.288Z,88.30
2017-05-19T04:56:10.282Z,88.30
2017-05-19T04:58:39.286Z,88.30
2017-05-19T05:01:07.908Z,88.10
2017-05-19T05:03:36.532Z,88.30
2017-05-19T05:06:05.557Z,88.40
2017-05-19T05:08:34.180Z,88.80
2017-05-19T05:11:02.405Z,88.80
2017-05-19T05:13:31.349Z,89.60
2017-05-19T05:15:59.964Z,88.80
2017-05-19T05:18:28.187Z,88.80
2017-05-19T05:20:56.863Z,88.90
2017-05-19T05:23:25.484Z,89.20
2017-05-19T05:25:54.473Z,88.80
2017-05-19T05:28:23.769Z,88.30
2017-05-19T05:30:52.398Z,88.60
2017-05-19T05:33:21.013Z,88.50
2017-05-19T05:35:49.669Z,88.20
2017-05-19T05:38:18.773Z,88.60
2017-05-19T05:40:47.670Z,88.70
2017-05-19T05:43:16.760Z,88.80
2017-05-19T05:45:45.388Z,88.40
2017-05-19T05:48:14.380Z,89.60
2017-05-19T05:50:43.411Z,88.50
2017-05-19T05:53:11.646Z,88.50
2017-05-19T05:55:39.882Z,88.50
2017-05-19T05:58:08.710Z,88.90
2017-05-19T06:00:37.694Z,88.20
2017-05-19T06:03:06.684Z,88.30
2017-05-19T06:05:35.948Z,88.30
2017-05-19T06:08:04.708Z,88.50
2017-05-19T06:10:33.681Z,88.70
2017-05-19T06:13:02.321Z,88.60
2017-05-19T06:15:30.543Z,88.60
2017-05-19T06:17:59.239Z,88.70
2017-05-19T06:20:27.870Z,88.00
2017-05-19T06:22:56.483Z,88.00
2017-05-19T06:25:25.366Z,88.20
2017-05-19T06:27:53.994Z,87.50
2017-05-19T06:30:22.219Z,87.50
2017-05-19T06:32:50.842Z,88.50
2017-05-19T06:35:19.485Z,88.30
2017-05-19T06:37:48.112Z,88.10
2017-05-19T06:40:16.732Z,87.90
2017-05-19T06:42:45.748Z,87.20
2017-05-19T06:45:13.967Z,87.20
2017-05-19T06:47:42.588Z,86.00
2017-05-19T06:50:11.792Z,86.10
2017-05-19T06:52:40.424Z,86.50
2017-05-19T06:55:09.148Z,86.70
2017-05-19T06:57:37.931Z,86.30
2017-05-19T07:00:06.154Z,86.30
2017-05-19T07:02:34.783Z,85.80
2017-05-19T07:05:04.069Z,86.00
2017-05-19T07:07:32.307Z,86.00
2017-05-19T07:10:00.925Z,86.70
2017-05-19T07:12:30.090Z,85.80
2017-05-19T07:14:58.726Z,85.90
2017-05-19T07:17:27.730Z,86.30
2017-05-19T07:19:57.096Z,87.30
2017-05-19T07:22:25.834Z,87.20
2017-05-19T07:24:54.467Z,87.00
2017-05-19T07:27:23.640Z,87.30
2017-05-19T07:29:52.249Z,86.50
2017-05-19T07:32:21.241Z,86.20
2017-05-19T07:34:49.718Z,86.20
2017-05-19T07:37:18.352Z,86.00
2017-05-19T07:39:46.986Z,85.10
2017-05-19T07:42:15.997Z,84.70
2017-05-19T07:44:44.632Z,84.40
2017-05-19T07:47:13.249Z,84.20
2017-05-19T07:49:42.433Z,84.40
2017-05-19T07:52:11.061Z,85.60
2017-05-19T07:54:39.689Z,85.00
2017-05-19T07:57:07.948Z,85.00
2017-05-19T07:59:36.578Z,81.80
2017-05-19T08:02:05.564Z,81.20
2017-05-19T08:04:34.603Z,80.30
2017-05-19T08:07:03.214Z,81.00
2017-05-19T08:09:31.835Z,81.20
2017-05-19T08:12:00.487Z,82.10
2017-05-19T08:14:29.485Z,82.40
2017-05-19T08:16:58.472Z,80.70
2017-05-19T08:19:27.658Z,78.70
2017-05-19T08:21:56.268Z,78.00
2017-05-19T08:24:24.903Z,77.30
2017-05-19T08:26:53.536Z,77.60
2017-05-19T08:29:22.157Z,78.20
2017-05-19T08:31:50.790Z,78.00
2017-05-19T08:34:19.864Z,76.70
2017-05-19T08:36:48.447Z,77.10
2017-05-19T08:39:17.061Z,76.50
2017-05-19T08:41:45.502Z,76.50
2017-05-19T08:44:14.147Z,76.90
2017-05-19T08:46:42.760Z,76.70
2017-05-19T08:49:11.421Z,75.80
2017-05-19T08:51:40.058Z,76.50
2017-05-19T08:54:09.060Z,76.50
2017-05-19T08:56:37.727Z,77.70
2017-05-19T08:59:06.727Z,77.70
2017-05-19T09:01:35.732Z,78.00
2017-05-19T09:04:04.403Z,76.60
2017-05-19T09:06:33.406Z,76.30
2017-05-19T09:09:02.038Z,75.60
2017-05-19T09:11:30.688Z,75.10
2017-05-19T09:13:59.308Z,75.70
2017-05-19T09:16:27.940Z,75.40
2017-05-19T09:18:56.599Z,73.30
2017-05-19T09:21:25.584Z,72.70
2017-05-19T09:23:54.595Z,71.40
2017-05-19T09:26:23.430Z,72.50
2017-05-19T09:28:52.044Z,73.10
2017-05-19T09:31:20.270Z,73.20
2017-05-19T09:33:48.923Z,70.30
2017-05-19T09:36:17.550Z,70.20
2017-05-19T09:38:46.172Z,73.60
2017-05-19T09:41:15.454Z,71.90
2017-05-19T09:43:44.076Z,72.40
2017-05-19T09:46:12.699Z,71.00
2017-05-19T09:48:41.379Z,69.70
2017-05-19T09:51:09.998Z,69.40
2017-05-19T09:53:39.004Z,69.40
2017-05-19T09:56:07.262Z,69.40
2017-05-19T09:58:36.257Z,71.30
2017-05-19T10:01:05.246Z,70.90
2017-05-19T10:03:34.101Z,70.90
2017-05-19T10:06:02.724Z,71.00
2017-05-19T10:08:31.722Z,69.60
2017-05-19T10:11:00.369Z,68.80
2017-05-19T10:13:28.992Z,68.20
2017-05-19T10:15:57.625Z,68.60
2017-05-19T10:18:26.284Z,69.20
2017-05-19T10:20:54.512Z,69.20
2017-05-19T10:23:23.508Z,69.80
2017-05-19T10:25:52.529Z,70.30
2017-05-19T10:28:21.418Z,71.10
2017-05-19T10:30:50.040Z,71.40
2017-05-19T10:33:18.715Z,70.90
2017-05-19T10:35:47.331Z,72.30
2017-05-19T10:38:15.962Z,72.30
2017-05-19T10:40:44.490Z,72.30
2017-05-19T10:45:49.045Z,72.10
2017-05-19T10:48:18.035Z,72.10
2017-05-19T10:50:47.024Z,72.70
2017-05-19T10:53:16.765Z,72.80
2017-05-19T10:55:45.388Z,72.80
2017-05-19T10:58:14.353Z,72.00
2017-05-19T11:00:43.172Z,70.90
2017-05-19T11:03:11.799Z,71.70
2017-05-19T11:05:41.048Z,72.10
2017-05-19T11:08:09.730Z,73.70
2017-05-19T11:10:38.350Z,74.30
2017-05-19T11:13:06.976Z,75.10
2017-05-19T11:15:35.887Z,74.30
2017-05-19T11:18:04.500Z,74.00
2017-05-19T11:20:33.132Z,73.70
2017-05-19T11:23:01.947Z,73.40
2017-05-19T11:25:30.940Z,73.00
2017-05-19T11:27:59.170Z,73.00
2017-05-19T11:30:27.833Z,74.00
2017-05-19T11:32:56.069Z,74.00
2017-05-19T11:35:24.683Z,74.20
2017-05-19T11:37:52.949Z,74.20
2017-05-19T11:40:21.167Z,73.10
2017-05-19T11:42:49.790Z,73.10
2017-05-19T11:45:19.064Z,73.00
2017-05-19T11:47:47.684Z,73.40
2017-05-19T11:50:18.092Z,73.40
2017-05-19T11:52:47.124Z,73.40
2017-05-19T11:55:15.354Z,73.40
2017-05-19T11:57:44.354Z,73.70
2017-05-19T12:00:12.610Z,73.60
2017-05-19T12:02:41.237Z,73.50
2017-05-19T12:05:10.152Z,72.60
2017-05-19T12:07:38.788Z,72.50
2017-05-19T12:10:07.417Z,72.30
2017-05-19T12:12:36.044Z,73.20
2017-05-19T12:15:05.071Z,73.40
2017-05-19T12:17:33.673Z,73.40
2017-05-19T12:20:02.301Z,73.10
2017-05-19T12:22:31.279Z,73.10
2017-05-19T12:24:59.904Z,71.80
2017-05-19T12:27:28.529Z,70.90
2017-05-19T12:29:57.331Z,70.10
2017-05-19T12:32:25.963Z,70.50
2017-05-19T12:34:54.580Z,71.20
2017-05-19T12:37:23.240Z,72.00
2017-05-19T12:39:51.871Z,72.70
2017-05-19T12:42:20.874Z,73.20
2017-05-19T12:44:49.911Z,73.90
2017-05-19T12:47:18.544Z,74.50
2017-05-19T12:49:47.532Z,74.20
2017-05-19T12:52:17.129Z,74.00
2017-05-19T12:54:45.731Z,73.90
2017-05-19T12:57:13.967Z,73.90
2017-05-19T12:59:43.173Z,73.60
2017-05-19T13:02:11.395Z,72.50
2017-05-19T13:04:40.027Z,72.80
2017-05-19T13:07:08.672Z,72.40
2017-05-19T13:09:37.363Z,71.90
2017-05-19T13:12:05.556Z,72.00
2017-05-19T13:14:34.227Z,71.40
2017-05-19T13:17:02.840Z,71.00
2017-05-19T13:19:31.065Z,71.00
2017-05-19T13:21:59.711Z,71.80
2017-05-19T13:24:28.711Z,72.10
2017-05-19T13:26:57.340Z,71.60
2017-05-19T13:29:26.012Z,73.20
2017-05-19T13:31:54.628Z,72.60
2017-05-19T13:34:22.871Z,72.60
2017-05-19T13:36:51.790Z,71.80
2017-05-19T13:39:20.859Z,71.90
2017-05-19T13:41:49.484Z,72.60
2017-05-19T13:44:18.526Z,74.10
2017-05-19T13:46:47.126Z,74.50
2017-05-19T13:49:15.752Z,75.00
2017-05-19T13:51:45.974Z,75.50
2017-05-19T13:54:14.598Z,75.00
2017-05-19T13:56:43.453Z,74.90
2017-05-19T13:59:12.096Z,75.50
2017-05-19T14:01:40.336Z,75.50
2017-05-19T14:04:08.556Z,75.80
2017-05-19T14:06:36.811Z,76.30
2017-05-19T14:09:05.429Z,76.30
2017-05-19T14:11:34.283Z,76.00
2017-05-19T14:14:03.149Z,76.00
2017-05-19T14:16:31.352Z,76.00
2017-05-19T14:18:59.983Z,74.70
2017-05-19T14:21:29.124Z,74.50
2017-05-19T14:23:57.751Z,74.60
2017-05-19T14:26:26.387Z,75.10
2017-05-19T14:28:54.639Z,75.10
2017-05-19T14:31:23.273Z,75.10
2017-05-19T14:33:51.900Z,75.20
2017-05-19T14:36:21.019Z,75.70
2017-05-19T14:38:49.645Z,76.00
2017-05-19T14:41:18.286Z,75.90
2017-05-19T14:43:46.933Z,76.30
2017-05-19T14:46:15.565Z,76.30
2017-05-19T14:48:44.552Z,76.10
2017-05-19T14:51:13.862Z,76.50
2017-05-19T14:53:42.090Z,76.60
2017-05-19T14:56:11.370Z,76.50
2017-05-19T14:58:40.529Z,76.70
2017-05-19T15:01:09.958Z,77.00
2017-05-19T15:03:38.592Z,77.20
2017-05-19T15:06:06.853Z,77.20
2017-05-19T15:08:35.938Z,77.10
2017-05-19T15:11:04.830Z,77.40
2017-05-19T15:13:34.034Z,76.90
2017-05-19T15:16:02.646Z,76.80
2017-05-19T15:18:31.668Z,76.70
2017-05-19T15:20:59.926Z,76.70
2017-05-19T15:23:28.918Z,76.70
2017-05-19T15:25:58.047Z,77.00
2017-05-19T15:28:26.283Z,77.00
2017-05-19T15:30:54.899Z,77.10
2017-05-19T15:33:23.592Z,77.10
2017-05-19T15:35:52.351Z,75.90
2017-05-19T15:38:20.972Z,75.30
2017-05-19T15:40:49.965Z,75.50
2017-05-19T15:43:18.883Z,75.10
2017-05-19T15:45:47.123Z,75.10
2017-05-19T15:48:15.745Z,75.20
2017-05-19T15:50:44.759Z,75.40
2017-05-19T15:53:13.402Z,75.70
2017-05-19T15:55:41.648Z,75.70
2017-05-19T15:58:10.296Z,75.70
2017-05-19T16:00:38.934Z,75.50
2017-05-19T16:03:07.557Z,74.90
2017-05-19T16:05:36.206Z,74.20
2017-05-19T16:08:05.064Z,74.10
2017-05-19T16:10:33.691Z,73.60
2017-05-19T16:13:02.988Z,74.00
2017-05-19T16:15:31.222Z,74.00
2017-05-19T16:17:59.846Z,73.60
2017-05-19T16:20:28.852Z,73.90
2017-05-19T16:22:57.492Z,74.10
2017-05-19T16:25:26.116Z,74.10
2017-05-19T16:27:55.617Z,74.10
2017-05-19T16:30:24.210Z,73.90
2017-05-19T16:32:52.833Z,74.50
2017-05-19T16:35:21.822Z,76.60
2017-05-19T16:37:50.709Z,78.20
2017-05-19T16:40:19.438Z,78.90
2017-05-19T16:42:47.672Z,78.90
2017-05-19T16:45:16.293Z,78.20
2017-05-19T16:47:45.581Z,77.60
2017-05-19T16:50:14.845Z,77.60
2017-05-19T16:52:43.093Z,77.60
2017-05-19T16:55:11.448Z,77.80
2017-05-19T16:57:40.287Z,78.30
2017-05-19T17:00:08.921Z,78.40
2017-05-19T17:02:38.392Z,78.40
2017-05-19T17:05:06.986Z,78.10
2017-05-19T17:07:35.985Z,78.60
2017-05-19T17:10:05.208Z,79.60
2017-05-19T17:12:33.845Z,80.00
2017-05-19T17:15:02.490Z,81.20
2017-05-19T17:17:31.147Z,82.10
2017-05-19T17:19:59.791Z,83.50
2017-05-19T17:22:28.717Z,84.40
2017-05-19T17:24:58.296Z,83.80
2017-05-19T17:27:27.019Z,84.90
2017-05-19T17:29:55.735Z,85.70
2017-05-19T17:32:24.860Z,84.50
2017-05-19T17:34:53.142Z,84.50
2017-05-19T17:37:21.436Z,84.90
2017-05-19T17:39:50.561Z,84.70
2017-05-19T17:42:19.043Z,84.70
2017-05-19T17:44:47.672Z,86.10
2017-05-19T17:47:16.591Z,86.00
2017-05-19T17:49:44.860Z,86.00
2017-05-19T17:52:13.542Z,85.00
2017-05-19T17:54:42.420Z,84.50
2017-05-19T17:57:10.882Z,84.50
2017-05-19T17:59:40.772Z,84.00
2017-05-19T18:02:10.212Z,83.20
2017-05-19T18:04:38.495Z,83.20
2017-05-19T18:07:07.555Z,83.00
2017-05-19T18:09:35.872Z,83.00
2017-05-19T18:12:04.614Z,83.90
2017-05-19T18:14:33.446Z,83.10
2017-05-19T18:17:02.192Z,83.00
2017-05-19T18:19:30.767Z,83.00
2017-05-19T18:21:59.821Z,83.30
2017-05-19T18:24:28.538Z,84.30
2017-05-19T18:26:57.414Z,84.80
2017-05-19T18:29:26.019Z,84.80
2017-05-19T18:31:55.177Z,84.80
2017-05-19T18:34:25.281Z,85.50
2017-05-19T18:36:54.560Z,85.50
2017-05-19T18:39:23.567Z,84.60
2017-05-19T18:41:52.552Z,84.60
2017-05-19T18:44:21.888Z,84.80
2017-05-19T18:46:50.930Z,84.40
2017-05-19T18:49:19.604Z,84.40
2017-05-19T18:51:50.029Z,83.40
2017-05-19T18:54:19.063Z,84.50
2017-05-19T18:56:47.815Z,84.50
2017-05-19T18:59:17.047Z,84.70
2017-05-19T19:01:48.658Z,85.20
2017-05-19T19:04:18.750Z,85.60
2017-05-19T19:06:48.019Z,86.60
2017-05-19T19:09:17.036Z,86.60
2017-05-19T19:11:46.819Z,87.00
2017-05-19T19:14:17.277Z,86.60
2017-05-19T19:16:46.411Z,86.90
2017-05-19T19:19:15.615Z,90.90
2017-05-19T19:21:44.710Z,95.60
2017-05-19T19:24:16.355Z,98.20
2017-05-19T19:26:45.218Z,98.20
2017-05-19T19:29:14.979Z,95.90
2017-05-19T19:31:44.007Z,96.20
2017-05-19T19:34:13.785Z,96.20
2017-05-19T19:36:43.031Z,95.70
2017-05-19T19:39:13.659Z,95.80
2017-05-19T19:41:43.839Z,96.40
2017-05-19T19:44:13.448Z,96.70
2017-05-19T19:46:42.529Z,96.10
2017-05-19T19:49:12.055Z,96.00
2017-05-19T19:51:41.103Z,96.70
2017-05-19T19:54:12.231Z,96.90
2017-05-19T19:56:41.438Z,96.90
2017-05-19T19:59:10.563Z,95.80
2017-05-19T20:01:39.671Z,95.00
2017-05-19T20:04:09.490Z,95.80
2017-05-19T20:06:38.197Z,95.80
2017-05-19T20:09:08.178Z,95.40
2017-05-19T20:11:37.442Z,94.80
2017-05-19T20:14:07.191Z,94.80
2017-05-19T20:16:36.276Z,94.60
2017-05-19T20:19:05.751Z,93.60
2017-05-19T20:21:35.128Z,92.40
2017-05-19T20:24:05.084Z,92.30
2017-05-19T20:26:34.165Z,93.10
2017-05-19T20:29:03.297Z,92.20
2017-05-19T20:31:34.934Z,93.10
2017-05-19T20:34:04.048Z,92.40
2017-05-19T20:36:33.166Z,91.50
2017-05-19T20:39:02.289Z,91.20
2017-05-19T20:41:30.895Z,91.20
2017-05-19T20:43:59.919Z,90.40
2017-05-19T20:46:29.366Z,90.30
2017-05-19T20:48:58.782Z,91.40
2017-05-19T20:51:29.227Z,91.60
2017-05-19T20:53:58.463Z,90.90
2017-05-19T20:56:27.139Z,90.90
2017-05-19T20:58:56.304Z,90.80
2017-05-19T21:01:25.352Z,90.50
2017-05-19T21:03:54.869Z,91.50
2017-05-19T21:06:23.665Z,91.00
2017-05-19T21:08:53.088Z,90.10
2017-05-19T21:11:21.844Z,90.90
2017-05-19T21:13:50.269Z,90.90
2017-05-19T21:16:19.918Z,90.20
2017-05-19T21:18:48.673Z,89.10
2017-05-19T21:21:17.080Z,89.10
2017-05-19T21:23:45.421Z,89.20
2017-05-19T21:26:14.265Z,89.80
2017-05-19T21:28:42.888Z,90.30
2017-05-19T21:31:11.936Z,88.90
2017-05-19T21:33:40.554Z,88.80
2017-05-19T21:36:09.553Z,88.80
2017-05-19T21:38:37.796Z,88.80
2017-05-19T21:41:06.024Z,88.60
2017-05-19T21:43:34.641Z,88.70
2017-05-19T21:46:03.407Z,88.40
2017-05-19T21:48:32.042Z,88.10
2017-05-19T21:51:00.956Z,88.40
2017-05-19T21:53:29.630Z,89.00
2017-05-19T21:55:58.258Z,89.30
2017-05-19T21:58:26.892Z,88.60
2017-05-19T22:00:55.935Z,88.40
2017-05-19T22:03:24.577Z,87.30
2017-05-19T22:05:53.192Z,88.10
2017-05-19T22:08:22.224Z,88.00
2017-05-19T22:21:55.972Z,88.00
2017-05-19T22:24:23.824Z,87.80
2017-05-19T22:26:51.686Z,87.70
2017-05-19T22:29:19.643Z,87.80
2017-05-19T22:31:48.484Z,88.00
2017-05-19T22:34:15.935Z,88.00
2017-05-19T22:36:44.084Z,88.10
2017-05-19T22:39:11.973Z,87.60
2017-05-19T22:41:39.819Z,88.00
2017-05-19T22:44:07.697Z,87.60
2017-05-19T22:46:35.555Z,88.10
2017-05-19T22:49:03.404Z,87.40
2017-05-19T22:51:30.987Z,87.40
2017-05-19T22:53:58.459Z,88.40
2017-05-19T22:56:26.309Z,87.80
2017-05-19T22:58:54.148Z,87.80
2017-05-19T23:01:22.000Z,88.00
2017-05-19T23:03:50.167Z,88.20
2017-05-19T23:06:18.036Z,88.00
2017-05-19T23:08:45.886Z,88.10
2017-05-19T23:11:13.736Z,88.40
2017-05-19T23:13:41.953Z,88.70
2017-05-19T23:16:09.819Z,88.20
2017-05-19T23:18:37.661Z,87.50
2017-05-19T23:21:05.549Z,88.20
2017-05-19T23:23:33.008Z,88.20
2017-05-19T23:26:00.871Z,87.70
2017-05-19T23:28:28.914Z,87.70
2017-05-19T23:30:56.783Z,87.90
2017-05-19T23:33:24.640Z,88.50
2017-05-19T23:35:52.529Z,88.30
2017-05-19T23:38:20.383Z,88.40
2017-05-19T23:40:48.251Z,88.20
2017-05-19T23:43:16.135Z,87.70
2017-05-19T23:45:43.980Z,87.70
2017-05-19T23:48:11.435Z,87.70
2017-05-19T23:50:39.007Z,87.40
2017-05-19T23:53:06.859Z,88.00
2017-05-19T23:55:34.709Z,87.40
2017-05-19T23:58:02.198Z,87.40
